Time;durP1;ratioP1;P1;durP2;ratioP2;P2;SDS_P1;SDS_P2;PMS_P1;PMS_P2;Temp;Humidity;BMP_temperature;BMP_pressure;BME280_temperature;BME280_humidity;BME280_pressure;Samples;Min_cycle;Max_cycle;Signal;HPM_P1;HPM_P2
2023/04/22 00:00:20;;;;;;;3.90;3.25;;;9.30;99.90;;;;;;5024519;28;20029;-51
2023/04/22 00:02:45;;;;;;;3.50;3.13;;;9.20;99.90;;;;;;5025161;28;20100;-48
2023/04/22 00:05:12;;;;;;;4.55;3.10;;;9.20;99.90;;;;;;5025663;28;20033;-51
2023/04/22 00:07:39;;;;;;;6.20;2.88;;;9.20;99.90;;;;;;5024326;28;20022;-49
2023/04/22 00:10:06;;;;;;;4.28;3.20;;;9.10;99.90;;;;;;5024045;28;20024;-51
2023/04/22 00:12:33;;;;;;;5.05;3.55;;;9.10;99.90;;;;;;5025465;28;20111;-48
2023/04/22 00:14:59;;;;;;;2.60;2.33;;;9.10;99.90;;;;;;5025470;28;20670;-50
2023/04/22 00:17:25;;;;;;;4.57;2.83;;;9.10;99.90;;;;;;5024012;28;20142;-48
2023/04/22 00:19:50;;;;;;;6.28;3.13;;;9.10;99.90;;;;;;5025149;28;20510;-48
2023/04/22 00:22:16;;;;;;;6.38;3.25;;;9.10;99.90;;;;;;5025325;28;20378;-50
2023/04/22 00:24:42;;;;;;;3.10;2.70;;;9.10;99.90;;;;;;5025335;28;20116;-48
2023/04/22 00:27:07;;;;;;;3.95;3.00;;;9.00;99.90;;;;;;5024285;28;20470;-51
2023/04/22 00:29:33;;;;;;;6.38;3.17;;;9.00;99.90;;;;;;5025174;28;20033;-49
2023/04/22 00:31:58;;;;;;;5.13;2.63;;;9.00;99.90;;;;;;5023057;28;20037;-48
2023/04/22 00:34:24;;;;;;;5.45;3.28;;;9.00;99.90;;;;;;5024798;28;20025;-50
2023/04/22 00:36:50;;;;;;;5.47;2.97;;;8.90;99.90;;;;;;5028191;28;20391;-48
2023/04/22 00:39:16;;;;;;;4.88;3.50;;;8.90;99.90;;;;;;5028862;28;20108;-51
2023/04/22 00:41:42;;;;;;;5.18;2.95;;;8.90;99.90;;;;;;5028660;28;20022;-52
2023/04/22 00:44:11;;;;;;;3.85;2.83;;;8.90;99.90;;;;;;5028963;28;20722;-48
2023/04/22 00:46:38;;;;;;;3.75;3.03;;;8.90;99.90;;;;;;5028219;28;20030;-50
2023/04/22 00:49:04;;;;;;;3.00;2.70;;;8.90;99.90;;;;;;5028916;28;20025;-49
2023/04/22 00:51:31;;;;;;;5.93;3.08;;;8.80;99.90;;;;;;5029233;28;20030;-48
2023/04/22 00:53:56;;;;;;;3.35;2.83;;;8.80;99.90;;;;;;5028498;28;20714;-50
2023/04/22 00:56:25;;;;;;;5.93;2.92;;;8.80;99.90;;;;;;5028455;28;20029;-49
2023/04/22 00:58:52;;;;;;;6.30;2.80;;;8.80;99.90;;;;;;5025705;28;20508;-51
2023/04/22 01:01:18;;;;;;;3.67;3.17;;;8.80;99.90;;;;;;5024670;28;20037;-48
2023/04/22 01:03:46;;;;;;;5.60;3.03;;;8.70;99.90;;;;;;5027135;28;20103;-49
2023/04/22 01:06:12;;;;;;;6.00;3.60;;;8.70;99.90;;;;;;5028285;28;20024;-49
2023/04/22 01:08:39;;;;;;;7.47;3.38;;;8.70;99.90;;;;;;5027079;28;20027;-50
2023/04/22 01:11:05;;;;;;;3.63;3.30;;;8.70;99.90;;;;;;5028254;28;20052;-49
2023/04/22 01:13:31;;;;;;;3.92;3.13;;;8.70;99.90;;;;;;5028395;28;20029;-49
2023/04/22 01:15:58;;;;;;;5.03;3.20;;;8.60;99.90;;;;;;5027855;28;20439;-48
2023/04/22 01:18:25;;;;;;;3.33;3.03;;;8.60;99.90;;;;;;5028505;28;20454;-48
2023/04/22 01:20:51;;;;;;;3.25;2.88;;;8.60;99.90;;;;;;5028438;28;20029;-50
2023/04/22 01:23:20;;;;;;;6.57;2.95;;;8.50;99.90;;;;;;5027891;28;20091;-51
2023/04/22 01:25:47;;;;;;;3.75;2.80;;;8.50;99.90;;;;;;5028570;28;20095;-49
2023/04/22 01:28:14;;;;;;;3.40;2.42;;;8.50;99.90;;;;;;5027533;28;20441;-48
2023/04/22 01:30:41;;;;;;;4.05;3.00;;;8.50;99.90;;;;;;5027462;28;20482;-49
2023/04/22 01:33:07;;;;;;;4.65;3.53;;;8.40;99.90;;;;;;5028970;28;20491;-51
2023/04/22 01:35:35;;;;;;;4.70;3.50;;;8.40;99.90;;;;;;5028197;28;20029;-50
2023/04/22 01:38:05;;;;;;;3.17;2.45;;;8.40;99.90;;;;;;5027599;28;20384;-48
2023/04/22 01:40:31;;;;;;;4.00;2.70;;;8.40;99.90;;;;;;5028383;28;20079;-50
2023/04/22 01:43:01;;;;;;;3.90;3.42;;;8.30;99.90;;;;;;5027422;28;20036;-49
2023/04/22 01:45:27;;;;;;;4.90;3.15;;;8.30;99.90;;;;;;5028259;28;20053;-50
2023/04/22 01:47:53;;;;;;;3.90;2.53;;;8.30;99.90;;;;;;5027638;28;20606;-49
2023/04/22 01:50:20;;;;;;;2.90;2.60;;;8.40;99.90;;;;;;5027824;28;20107;-51
2023/04/22 01:52:45;;;;;;;5.38;2.97;;;8.30;99.90;;;;;;5028328;28;20017;-49
2023/04/22 01:55:12;;;;;;;4.18;3.00;;;8.30;99.90;;;;;;5028511;28;20048;-49
2023/04/22 01:57:37;;;;;;;4.72;3.10;;;8.30;99.90;;;;;;5028205;28;20057;-48
2023/04/22 02:00:04;;;;;;;11.07;3.25;;;8.40;99.90;;;;;;5010164;28;20053;-49
2023/04/22 02:02:30;;;;;;;4.32;3.20;;;8.40;99.90;;;;;;5027502;28;20028;-53
2023/04/22 02:04:55;;;;;;;5.43;3.97;;;8.40;99.90;;;;;;5028491;28;20013;-51
2023/04/22 02:07:21;;;;;;;6.90;3.55;;;8.40;99.90;;;;;;5027975;28;20471;-50
2023/04/22 02:09:47;;;;;;;4.15;3.42;;;8.50;99.90;;;;;;5027949;28;20458;-52
2023/04/22 02:12:12;;;;;;;3.53;3.22;;;8.50;99.90;;;;;;5010483;28;20028;-51
2023/04/22 02:14:38;;;;;;;4.55;3.30;;;8.50;99.90;;;;;;5027861;28;20064;-50
2023/04/22 02:17:03;;;;;;;6.63;3.63;;;8.50;99.90;;;;;;5027725;28;20372;-50
2023/04/22 02:19:29;;;;;;;4.35;3.95;;;8.60;99.90;;;;;;5027427;28;20053;-50
2023/04/22 02:21:55;;;;;;;5.10;3.65;;;8.60;99.90;;;;;;5027874;28;20437;-50
2023/04/22 02:24:23;;;;;;;7.72;3.72;;;8.60;99.90;;;;;;5028215;28;20029;-48
2023/04/22 02:26:49;;;;;;;6.28;4.50;;;8.60;99.90;;;;;;5027123;28;20574;-50
2023/04/22 02:29:15;;;;;;;5.80;4.00;;;8.70;99.90;;;;;;5027564;28;20113;-50
2023/04/22 02:31:41;;;;;;;6.78;4.15;;;8.70;99.90;;;;;;5027234;28;20061;-49
2023/04/22 02:34:06;;;;;;;5.05;4.28;;;8.70;99.90;;;;;;5027178;28;20053;-49
2023/04/22 02:36:33;;;;;;;4.22;3.83;;;8.70;99.90;;;;;;5008931;28;20026;-48
2023/04/22 02:39:00;;;;;;;6.97;4.05;;;8.70;99.90;;;;;;5027205;28;20399;-48
2023/04/22 02:41:26;;;;;;;4.20;3.80;;;8.80;99.90;;;;;;5025779;28;20021;-49
2023/04/22 02:43:51;;;;;;;7.78;4.70;;;8.80;99.90;;;;;;5027282;28;20114;-51
2023/04/22 02:46:17;;;;;;;6.30;4.10;;;8.80;99.90;;;;;;5009906;28;20091;-49
2023/04/22 02:48:42;;;;;;;4.72;3.95;;;8.80;99.90;;;;;;5027311;28;20534;-48
2023/04/22 02:51:08;;;;;;;5.78;3.47;;;8.90;99.90;;;;;;5027323;28;20048;-51
2023/04/22 02:53:34;;;;;;;5.07;4.38;;;8.90;99.90;;;;;;5027099;28;20056;-51
2023/04/22 02:55:59;;;;;;;5.97;4.32;;;8.90;99.90;;;;;;5026002;28;20474;-49
2023/04/22 02:58:25;;;;;;;5.30;4.03;;;8.90;99.90;;;;;;5008575;28;20032;-48
2023/04/22 03:00:51;;;;;;;5.72;4.30;;;9.00;99.90;;;;;;5024001;28;20068;-50
2023/04/22 03:03:17;;;;;;;4.57;3.97;;;8.90;99.90;;;;;;5026960;28;20014;-49
2023/04/22 03:05:43;;;;;;;6.20;4.75;;;8.90;99.90;;;;;;5027560;28;20521;-48
2023/04/22 03:08:08;;;;;;;5.22;3.92;;;8.90;99.90;;;;;;5026548;28;20018;-49
2023/04/22 03:10:34;;;;;;;6.60;4.63;;;8.90;99.90;;;;;;5027124;28;20017;-49
2023/04/22 03:13:00;;;;;;;6.43;4.53;;;8.90;99.90;;;;;;5026707;28;20032;-51
2023/04/22 03:15:25;;;;;;;7.70;4.93;;;8.90;99.90;;;;;;5025384;28;20026;-48
2023/04/22 03:17:51;;;;;;;7.28;4.70;;;8.90;99.90;;;;;;5026353;28;20033;-48
2023/04/22 03:20:16;;;;;;;6.68;4.63;;;8.90;99.90;;;;;;5026871;28;20401;-52
2023/04/22 03:22:42;;;;;;;6.88;4.70;;;8.90;99.90;;;;;;5026893;28;20562;-52
2023/04/22 03:25:10;;;;;;;5.93;4.75;;;9.00;99.90;;;;;;5026965;28;20017;-49
2023/04/22 03:27:35;;;;;;;6.03;4.80;;;9.00;99.90;;;;;;5025848;28;20025;-49
2023/04/22 03:30:01;;;;;;;5.97;4.65;;;9.00;99.90;;;;;;5008631;28;20151;-53
2023/04/22 03:32:26;;;;;;;6.55;4.70;;;9.10;99.90;;;;;;5025751;28;20185;-48
2023/04/22 03:34:52;;;;;;;5.38;4.63;;;9.00;99.90;;;;;;5026215;28;20045;-49
2023/04/22 03:37:17;;;;;;;5.05;4.18;;;9.10;99.90;;;;;;5025768;28;20079;-48
2023/04/22 03:39:43;;;;;;;7.05;4.60;;;9.10;99.90;;;;;;5025457;28;20446;-49
2023/04/22 03:42:10;;;;;;;6.47;4.65;;;9.10;99.90;;;;;;5025456;28;20063;-49
2023/04/22 03:44:35;;;;;;;8.32;5.40;;;9.20;99.90;;;;;;5026281;28;20034;-51
2023/04/22 03:47:01;;;;;;;7.25;5.10;;;9.10;99.90;;;;;;5009285;28;20025;-48
2023/04/22 03:49:26;;;;;;;9.43;4.80;;;9.20;99.90;;;;;;5025486;28;20029;-49
2023/04/22 03:51:52;;;;;;;7.82;4.80;;;9.10;99.90;;;;;;5010289;28;20526;-50
2023/04/22 03:54:18;;;;;;;5.47;4.72;;;9.20;99.90;;;;;;5026078;28;20053;-52
2023/04/22 03:56:43;;;;;;;6.18;4.70;;;9.20;99.90;;;;;;5025639;28;20041;-50
2023/04/22 03:59:09;;;;;;;6.65;5.00;;;9.10;99.90;;;;;;5025185;28;20033;-48
2023/04/22 04:01:35;;;;;;;6.60;4.85;;;9.10;99.90;;;;;;5024150;28;20494;-48
2023/04/22 04:04:01;;;;;;;7.63;4.90;;;9.10;99.90;;;;;;5025954;28;20522;-49
2023/04/22 04:06:27;;;;;;;7.20;4.78;;;9.10;99.90;;;;;;5025893;28;20068;-48
2023/04/22 04:08:53;;;;;;;9.13;5.35;;;9.00;99.90;;;;;;5025236;28;20083;-49
2023/04/22 04:11:18;;;;;;;6.53;4.90;;;9.00;99.90;;;;;;5026005;28;20483;-49
2023/04/22 04:13:44;;;;;;;6.80;5.20;;;9.00;99.90;;;;;;5025429;28;20065;-49
2023/04/22 04:16:09;;;;;;;6.07;4.93;;;9.00;99.90;;;;;;5025797;28;20029;-49
2023/04/22 04:18:35;;;;;;;5.78;4.45;;;9.00;99.90;;;;;;5007748;28;20468;-48
2023/04/22 04:21:01;;;;;;;8.98;5.30;;;9.00;99.90;;;;;;5026036;28;20036;-49
2023/04/22 04:23:26;;;;;;;6.35;4.35;;;9.00;99.90;;;;;;5025224;28;20754;-51
2023/04/22 04:25:53;;;;;;;5.47;4.95;;;9.00;99.90;;;;;;5007666;28;20028;-48
2023/04/22 04:28:18;;;;;;;6.45;4.82;;;9.00;99.90;;;;;;5024775;28;20028;-50
2023/04/22 04:30:44;;;;;;;7.75;5.30;;;9.00;99.90;;;;;;5024973;28;20037;-49
2023/04/22 04:33:10;;;;;;;8.27;5.32;;;9.00;99.90;;;;;;5024765;28;20057;-48
2023/04/22 04:35:36;;;;;;;7.25;5.10;;;9.00;99.90;;;;;;5023945;28;20056;-49
2023/04/22 04:38:03;;;;;;;6.28;5.05;;;9.00;99.90;;;;;;5024442;28;20068;-52
2023/04/22 04:40:29;;;;;;;5.30;4.60;;;9.00;99.90;;;;;;5025910;28;20055;-49
2023/04/22 04:42:56;;;;;;;8.52;4.97;;;9.00;99.90;;;;;;5024337;28;20021;-49
2023/04/22 04:45:23;;;;;;;6.95;5.43;;;8.90;99.90;;;;;;5024672;28;20045;-53
2023/04/22 04:47:49;;;;;;;6.47;5.10;;;9.00;99.90;;;;;;5025171;28;20075;-49
2023/04/22 04:50:15;;;;;;;8.95;5.07;;;8.90;99.90;;;;;;5025178;28;20025;-50
2023/04/22 04:52:41;;;;;;;5.88;4.50;;;9.00;99.90;;;;;;5025011;28;20025;-49
2023/04/22 04:55:07;;;;;;;5.45;4.75;;;8.90;99.90;;;;;;5024980;28;20032;-48
2023/04/22 04:57:33;;;;;;;7.55;5.57;;;8.90;99.90;;;;;;5024717;28;20060;-53
2023/04/22 04:59:58;;;;;;;5.45;4.88;;;9.00;99.90;;;;;;5024324;28;20083;-49
2023/04/22 05:02:24;;;;;;;9.55;5.07;;;9.10;99.90;;;;;;5024057;28;20034;-49
2023/04/22 05:04:49;;;;;;;6.25;4.95;;;9.10;99.90;;;;;;5023900;28;20022;-53
2023/04/22 05:07:15;;;;;;;8.68;5.15;;;9.10;99.90;;;;;;5025395;28;20673;-49
2023/04/22 05:09:41;;;;;;;6.05;5.10;;;9.10;99.90;;;;;;5023216;28;20534;-49
2023/04/22 05:12:06;;;;;;;9.90;5.45;;;9.10;99.90;;;;;;5024954;28;20032;-49
2023/04/22 05:14:32;;;;;;;5.82;4.88;;;9.20;99.90;;;;;;5023956;28;20025;-49
2023/04/22 05:16:57;;;;;;;5.38;4.88;;;9.20;99.90;;;;;;5023859;28;20581;-48
2023/04/22 05:19:23;;;;;;;6.55;5.20;;;9.20;99.90;;;;;;5025932;28;20381;-49
2023/04/22 05:21:48;;;;;;;6.22;4.90;;;9.20;99.90;;;;;;5027738;28;20057;-49
2023/04/22 05:24:14;;;;;;;5.43;4.90;;;9.20;99.90;;;;;;5027235;28;20065;-49
2023/04/22 05:26:40;;;;;;;6.38;5.10;;;9.30;99.90;;;;;;5028398;28;20021;-49
2023/04/22 05:29:06;;;;;;;7.30;5.82;;;9.30;99.90;;;;;;5027339;28;20134;-52
2023/04/22 05:31:32;;;;;;;7.00;5.35;;;9.40;99.90;;;;;;5027751;28;20037;-51
2023/04/22 05:33:58;;;;;;;8.70;5.35;;;9.40;99.90;;;;;;5027691;28;20348;-51
2023/04/22 05:36:24;;;;;;;6.07;5.20;;;9.50;99.90;;;;;;5027838;28;20025;-51
2023/04/22 05:38:49;;;;;;;8.07;5.50;;;9.60;99.90;;;;;;5027965;28;20554;-49
2023/04/22 05:41:15;;;;;;;7.03;5.13;;;9.60;99.90;;;;;;5027940;28;20199;-53
2023/04/22 05:43:41;;;;;;;8.55;6.32;;;9.70;99.90;;;;;;5027578;28;20033;-50
2023/04/22 05:46:06;;;;;;;5.72;5.07;;;9.80;99.90;;;;;;5028160;28;20107;-54
2023/04/22 05:48:32;;;;;;;6.32;5.40;;;9.90;99.90;;;;;;5027337;28;20073;-48
2023/04/22 05:50:57;;;;;;;5.95;5.35;;;10.00;99.90;;;;;;5028319;28;20025;-49
2023/04/22 05:53:23;;;;;;;6.93;5.28;;;10.00;99.90;;;;;;5027706;28;20033;-49
2023/04/22 05:55:49;;;;;;;5.93;5.25;;;10.10;99.90;;;;;;5027771;28;20033;-49
2023/04/22 05:58:14;;;;;;;6.25;5.63;;;10.10;99.90;;;;;;5027147;28;20025;-51
2023/04/22 06:00:40;;;;;;;9.65;5.55;;;10.20;99.90;;;;;;5007481;28;20026;-52
2023/04/22 06:03:05;;;;;;;8.30;5.03;;;10.30;99.90;;;;;;5026547;28;20521;-50
2023/04/22 06:05:31;;;;;;;6.90;5.30;;;10.30;99.90;;;;;;5028266;28;20018;-52
2023/04/22 06:07:57;;;;;;;7.95;5.25;;;10.40;99.90;;;;;;5027365;28;20475;-51
2023/04/22 06:10:22;;;;;;;8.40;5.63;;;10.50;99.90;;;;;;5027071;28;20025;-48
2023/04/22 06:12:48;;;;;;;6.18;5.43;;;10.60;99.90;;;;;;5008987;28;20578;-52
2023/04/22 06:15:14;;;;;;;7.32;5.35;;;10.70;99.90;;;;;;5027309;28;20059;-50
2023/04/22 06:17:39;;;;;;;10.32;5.80;;;10.80;99.90;;;;;;5025583;28;20048;-53
2023/04/22 06:20:05;;;;;;;6.47;5.40;;;10.90;99.90;;;;;;5026209;28;20029;-48
2023/04/22 06:22:31;;;;;;;6.47;5.15;;;11.00;99.90;;;;;;5027463;28;20026;-49
2023/04/22 06:24:56;;;;;;;8.82;6.03;;;11.10;99.90;;;;;;5027315;28;20083;-51
2023/04/22 06:27:22;;;;;;;9.02;5.88;;;11.20;99.90;;;;;;5026608;28;20037;-51
2023/04/22 06:29:47;;;;;;;8.73;6.10;;;11.30;99.90;;;;;;5026976;28;20029;-49
2023/04/22 06:32:13;;;;;;;6.15;5.05;;;11.30;99.90;;;;;;5025587;28;20076;-48
2023/04/22 06:34:38;;;;;;;8.02;5.70;;;11.40;99.90;;;;;;5027266;28;20075;-51
2023/04/22 06:37:05;;;;;;;6.32;5.60;;;11.40;99.90;;;;;;5026690;28;20046;-49
2023/04/22 06:39:30;;;;;;;7.28;5.07;;;11.60;99.90;;;;;;5026285;28;20075;-48
2023/04/22 06:41:56;;;;;;;7.53;5.57;;;11.70;99.90;;;;;;5026858;28;20057;-49
2023/04/22 06:44:21;;;;;;;8.63;5.80;;;11.80;99.90;;;;;;5008323;28;20018;-50
2023/04/22 06:46:47;;;;;;;7.53;5.55;;;12.00;99.90;;;;;;5026033;28;20576;-52
2023/04/22 06:49:12;;;;;;;6.35;5.20;;;12.20;99.90;;;;;;5027029;28;20061;-49
2023/04/22 06:51:38;;;;;;;5.63;5.05;;;12.40;99.90;;;;;;5026905;28;20037;-49
2023/04/22 06:54:03;;;;;;;8.13;5.93;;;12.60;99.90;;;;;;5026557;28;20025;-49
2023/04/22 06:56:29;;;;;;;5.85;5.10;;;12.80;99.90;;;;;;5026577;28;20513;-50
2023/04/22 06:58:55;;;;;;;7.35;5.50;;;13.00;99.90;;;;;;5016887;28;20026;-49
2023/04/22 07:01:21;;;;;;;7.13;5.65;;;13.20;99.90;;;;;;5025784;28;20532;-49
2023/04/22 07:03:46;;;;;;;5.53;4.95;;;13.30;99.90;;;;;;5024459;28;20064;-50
2023/04/22 07:06:12;;;;;;;5.75;5.13;;;13.60;99.90;;;;;;5025796;28;20550;-47
2023/04/22 07:08:38;;;;;;;7.18;4.60;;;13.80;99.90;;;;;;5026826;28;20017;-48
2023/04/22 07:11:03;;;;;;;6.13;5.53;;;14.00;99.90;;;;;;5024378;28;20057;-49
2023/04/22 07:13:32;;;;;;;7.68;5.95;;;14.10;99.90;;;;;;5026799;28;20107;-47
2023/04/22 07:16:01;;;;;;;7.53;5.47;;;14.30;99.90;;;;;;5026720;28;20104;-49
2023/04/22 07:18:27;;;;;;;7.20;5.30;;;14.50;99.90;;;;;;5026006;28;20075;-48
2023/04/22 07:20:53;;;;;;;7.05;5.63;;;14.70;99.60;;;;;;5026165;28;20049;-51
2023/04/22 07:23:19;;;;;;;6.88;5.15;;;14.90;99.20;;;;;;5026854;28;20037;-48
2023/04/22 07:25:44;;;;;;;9.35;5.00;;;15.00;99.30;;;;;;5025382;28;20018;-51
2023/04/22 07:28:10;;;;;;;7.72;5.15;;;15.20;99.40;;;;;;5026414;28;20022;-50
2023/04/22 07:30:36;;;;;;;7.65;5.30;;;15.40;98.60;;;;;;5025348;28;20037;-50
2023/04/22 07:33:01;;;;;;;6.05;5.18;;;15.60;98.10;;;;;;5025877;28;20815;-49
2023/04/22 07:35:27;;;;;;;7.03;4.95;;;15.70;97.80;;;;;;5025832;28;20048;-49
2023/04/22 07:37:53;;;;;;;6.97;5.20;;;15.80;96.90;;;;;;5023097;28;20037;-47
2023/04/22 07:40:19;;;;;;;5.75;4.72;;;16.00;97.10;;;;;;5025796;28;20028;-48
2023/04/22 07:42:44;;;;;;;7.38;5.18;;;16.10;97.70;;;;;;5025417;28;20025;-50
2023/04/22 07:45:10;;;;;;;5.60;5.00;;;16.30;98.90;;;;;;5024978;28;20030;-47
2023/04/22 07:47:36;;;;;;;7.40;4.75;;;16.50;97.90;;;;;;5026219;28;20028;-47
2023/04/22 07:50:02;;;;;;;6.60;4.97;;;16.70;96.80;;;;;;5024861;28;20030;-48
2023/04/22 07:52:28;;;;;;;5.82;5.18;;;17.00;95.30;;;;;;5025972;28;20033;-48
2023/04/22 07:54:54;;;;;;;5.30;4.70;;;17.10;96.80;;;;;;5025770;28;20021;-48
2023/04/22 07:57:21;;;;;;;9.05;5.18;;;17.20;96.10;;;;;;5024442;28;20548;-50
2023/04/22 07:59:47;;;;;;;7.63;5.18;;;17.40;95.10;;;;;;5025956;28;20025;-48
2023/04/22 08:02:13;;;;;;;6.75;4.40;;;17.50;95.60;;;;;;5025841;28;20033;-49
2023/04/22 08:04:38;;;;;;;8.02;5.68;;;17.60;93.80;;;;;;5007505;28;20037;-50
2023/04/22 08:07:04;;;;;;;6.60;4.88;;;17.70;94.00;;;;;;5024850;28;20032;-51
2023/04/22 08:09:29;;;;;;;7.20;5.13;;;17.80;93.30;;;;;;5024620;28;20026;-48
2023/04/22 08:11:55;;;;;;;5.95;4.55;;;17.90;92.70;;;;;;5025320;28;20038;-50
2023/04/22 08:14:21;;;;;;;8.32;5.18;;;18.00;94.00;;;;;;5006731;28;20070;-50
2023/04/22 08:16:46;;;;;;;5.57;4.40;;;18.20;93.90;;;;;;5025155;28;20035;-49
2023/04/22 08:19:12;;;;;;;5.35;4.70;;;18.30;93.80;;;;;;5024791;28;20037;-49
2023/04/22 08:21:37;;;;;;;6.68;4.78;;;18.50;93.50;;;;;;5025457;28;20036;-49
2023/04/22 08:24:03;;;;;;;5.60;4.28;;;18.70;93.10;;;;;;5025507;28;20033;-49
2023/04/22 08:26:29;;;;;;;5.18;4.65;;;18.90;93.00;;;;;;5025167;28;20112;-48
2023/04/22 08:28:54;;;;;;;6.22;5.28;;;19.00;91.60;;;;;;5024000;28;20053;-50
2023/04/22 08:31:20;;;;;;;5.07;4.57;;;19.10;91.10;;;;;;5024646;28;20045;-51
2023/04/22 08:33:46;;;;;;;6.57;5.15;;;19.10;91.10;;;;;;5025617;28;20030;-48
2023/04/22 08:36:12;;;;;;;6.15;5.00;;;19.20;90.80;;;;;;5024443;28;20468;-48
2023/04/22 08:38:37;;;;;;;6.15;4.80;;;19.30;92.30;;;;;;4998087;28;20030;-50
2023/04/22 08:41:04;;;;;;;6.90;5.30;;;19.20;90.60;;;;;;5025095;28;20638;-50
2023/04/22 08:43:31;;;;;;;6.68;4.97;;;19.10;90.40;;;;;;5024893;28;20033;-47
2023/04/22 08:45:57;;;;;;;5.95;5.43;;;19.20;91.60;;;;;;5025319;28;20428;-51
2023/04/22 08:48:22;;;;;;;7.03;4.85;;;19.20;92.30;;;;;;5024806;28;20117;-47
2023/04/22 08:50:49;;;;;;;5.20;4.57;;;19.40;91.40;;;;;;5025610;28;20480;-49
2023/04/22 08:53:14;;;;;;;7.15;4.65;;;19.50;90.90;;;;;;5024224;28;20112;-51
2023/04/22 08:55:43;;;;;;;6.47;5.15;;;19.70;91.50;;;;;;5028506;28;20113;-48
2023/04/22 08:58:11;;;;;;;5.40;4.57;;;19.90;90.20;;;;;;5028224;28;20030;-48
2023/04/22 09:00:37;;;;;;;5.90;4.30;;;20.00;89.70;;;;;;5028981;28;20480;-51
2023/04/22 09:03:05;;;;;;;5.25;4.75;;;19.90;89.50;;;;;;5028592;28;20043;-52
2023/04/22 09:05:33;;;;;;;5.55;5.00;;;19.90;89.70;;;;;;5029132;28;20110;-49
2023/04/22 09:07:58;;;;;;;5.32;4.68;;;19.60;89.60;;;;;;5028043;28;20102;-51
2023/04/22 09:10:24;;;;;;;6.18;4.47;;;19.50;90.40;;;;;;5028853;28;20462;-50
2023/04/22 09:12:51;;;;;;;6.70;4.45;;;19.50;91.80;;;;;;5027666;28;20479;-51
2023/04/22 09:15:17;;;;;;;5.90;4.38;;;19.80;89.90;;;;;;5027664;28;20133;-51
2023/04/22 09:17:42;;;;;;;5.28;4.78;;;20.10;91.10;;;;;;5027812;28;20096;-48
2023/04/22 09:20:08;;;;;;;6.72;4.90;;;20.40;90.70;;;;;;5027847;28;20036;-47
2023/04/22 09:22:46;;;;;;;6.50;4.78;;;20.50;86.60;;;;;;5028134;28;20025;-50
2023/04/22 09:25:17;;;;;;;5.50;4.72;;;20.70;88.80;;;;;;5028498;28;20032;-50
2023/04/22 09:27:46;;;;;;;5.97;4.43;;;20.90;88.80;;;;;;5027672;28;20765;-49
2023/04/22 09:30:13;;;;;;;6.20;4.97;;;20.90;86.20;;;;;;5027635;28;20099;-52
2023/04/22 09:32:39;;;;;;;5.57;4.53;;;20.90;86.10;;;;;;5027440;28;20072;-48
2023/04/22 09:35:05;;;;;;;5.53;4.63;;;20.80;86.30;;;;;;5028581;28;20037;-48
2023/04/22 09:37:32;;;;;;;5.80;5.07;;;20.80;86.60;;;;;;5028104;28;20033;-52
2023/04/22 09:39:58;;;;;;;6.63;4.93;;;20.90;88.50;;;;;;5028503;28;20079;-49
2023/04/22 09:42:23;;;;;;;4.90;4.35;;;21.10;87.20;;;;;;5028134;28;20033;-48
2023/04/22 09:44:53;;;;;;;5.63;4.50;;;21.30;87.20;;;;;;5027395;28;20029;-51
2023/04/22 09:47:22;;;;;;;5.20;4.20;;;21.40;87.80;;;;;;5027138;28;20110;-50
2023/04/22 09:49:48;;;;;;;4.07;3.50;;;21.60;89.10;;;;;;5010118;28;20022;-49
2023/04/22 09:52:31;;;;;;;5.78;4.30;;;21.70;86.80;;;;;;5027208;28;20037;-47
2023/04/22 09:54:56;;;;;;;4.35;3.67;;;21.80;90.10;;;;;;5026372;28;20117;-50
2023/04/22 09:57:22;;;;;;;4.63;3.45;;;21.80;84.00;;;;;;5027768;28;20097;-52
2023/04/22 09:59:51;;;;;;;4.53;4.03;;;22.00;89.00;;;;;;5027298;28;20017;-50
2023/04/22 10:02:17;;;;;;;4.82;3.67;;;22.00;86.10;;;;;;5027330;28;20039;-50
2023/04/22 10:04:44;;;;;;;4.28;3.65;;;22.10;83.40;;;;;;5027157;28;20112;-50
2023/04/22 10:07:09;;;;;;;7.13;4.57;;;22.10;86.10;;;;;;5026820;28;20029;-49
2023/04/22 10:09:35;;;;;;;4.93;4.20;;;22.20;82.10;;;;;;5027960;28;20560;-50
2023/04/22 10:12:02;;;;;;;4.93;4.40;;;22.20;82.80;;;;;;5017137;28;20519;-53
2023/04/22 10:14:27;;;;;;;5.32;4.07;;;22.30;84.10;;;;;;5027095;28;20031;-52
2023/04/22 10:16:57;;;;;;;5.93;3.78;;;22.30;84.30;;;;;;5027377;28;20595;-49
2023/04/22 10:19:25;;;;;;;4.15;3.83;;;22.50;84.60;;;;;;5027093;28;20595;-48
2023/04/22 10:21:56;;;;;;;5.25;3.75;;;22.50;83.40;;;;;;5027355;28;20044;-49
2023/04/22 10:24:25;;;;;;;7.43;3.83;;;22.60;81.80;;;;;;5027385;28;20037;-50
2023/04/22 10:26:55;;;;;;;4.38;3.55;;;22.60;82.20;;;;;;5027483;28;20711;-48
2023/04/22 10:29:21;;;;;;;4.72;3.40;;;22.50;81.50;;;;;;5024702;28;20033;-49
2023/04/22 10:32:09;;;;;;;4.05;3.70;;;22.50;82.80;;;;;;5052037;22;20037;-57
2023/04/22 10:34:36;;;;;;;5.45;3.55;;;22.60;82.70;;;;;;5044035;28;20163;-56
2023/04/22 10:37:10;;;;;;;4.75;3.20;;;22.60;82.00;;;;;;5045408;28;20524;-57
2023/04/22 10:39:37;;;;;;;3.35;2.70;;;22.60;83.80;;;;;;5028231;28;20036;-56
2023/04/22 10:42:05;;;;;;;3.63;3.05;;;22.50;79.50;;;;;;5045119;28;20534;-58
2023/04/22 10:44:51;;;;;;;3.65;3.30;;;22.60;81.60;;;;;;5036070;28;20399;-57
2023/04/22 10:47:34;;;;;;;4.45;3.15;;;22.80;83.00;;;;;;5036741;28;20022;-57
2023/04/22 10:50:22;;;;;;;3.65;3.10;;;22.90;81.30;;;;;;5034646;28;20716;-57
2023/04/22 10:52:51;;;;;;;3.85;2.90;;;23.00;82.80;;;;;;5035544;28;20061;-54
2023/04/22 10:55:17;;;;;;;4.53;3.13;;;23.00;82.50;;;;;;5035670;28;20249;-58
2023/04/22 10:57:45;;;;;;;3.42;2.80;;;23.10;82.20;;;;;;5034645;28;20025;-58
2023/04/22 11:00:24;;;;;;;3.53;3.22;;;23.20;81.00;;;;;;5033519;28;20566;-56
2023/04/22 11:02:53;;;;;;;5.22;3.72;;;23.20;81.70;;;;;;5035778;28;20029;-55
2023/04/22 11:05:21;;;;;;;4.28;3.20;;;23.30;79.80;;;;;;5032526;28;20017;-57
2023/04/22 11:07:49;;;;;;;7.25;3.40;;;23.30;80.40;;;;;;5032421;28;20033;-55
2023/04/22 11:10:42;;;;;;;4.97;3.08;;;23.30;79.80;;;;;;5035290;28;20103;-55
2023/04/22 11:13:11;;;;;;;3.30;3.00;;;23.30;78.90;;;;;;5034847;28;20055;-56
2023/04/22 11:15:39;;;;;;;4.03;2.78;;;23.20;78.20;;;;;;5034486;28;20124;-58
2023/04/22 11:18:23;;;;;;;3.67;3.00;;;23.20;79.10;;;;;;5015655;28;20044;-58
2023/04/22 11:20:51;;;;;;;3.00;2.75;;;23.10;79.10;;;;;;5035719;28;20017;-56
2023/04/22 11:23:27;;;;;;;3.28;2.97;;;23.10;77.90;;;;;;5034491;28;20058;-56
2023/04/22 11:26:02;;;;;;;4.38;3.40;;;23.20;78.80;;;;;;5035855;28;20045;-55
2023/04/22 11:28:28;;;;;;;3.33;3.03;;;23.10;79.00;;;;;;5033866;28;20219;-58
2023/04/22 11:31:01;;;;;;;3.05;2.83;;;23.10;77.40;;;;;;5034895;28;20455;-58
2023/04/22 11:33:27;;;;;;;4.60;3.50;;;23.20;78.10;;;;;;5035801;28;20060;-56
2023/04/22 11:35:54;;;;;;;3.33;3.03;;;23.10;77.80;;;;;;5034430;28;20398;-56
2023/04/22 11:38:19;;;;;;;3.75;3.20;;;23.10;78.70;;;;;;5033648;28;20084;-57
2023/04/22 11:40:45;;;;;;;3.10;2.90;;;23.10;79.50;;;;;;5035459;28;20662;-57
2023/04/22 11:43:11;;;;;;;3.88;3.47;;;23.20;78.20;;;;;;5034121;28;20175;-58
2023/04/22 11:45:38;;;;;;;3.42;3.10;;;23.20;76.30;;;;;;5033996;28;20022;-58
2023/04/22 11:48:07;;;;;;;3.90;2.78;;;23.20;76.20;;;;;;5035504;28;20671;-58
2023/04/22 11:50:35;;;;;;;2.92;2.72;;;23.20;79.40;;;;;;5035554;28;20027;-59
2023/04/22 11:53:15;;;;;;;4.20;3.10;;;23.30;78.30;;;;;;5034212;28;20033;-60
2023/04/22 11:55:43;;;;;;;3.78;3.20;;;23.30;77.90;;;;;;5033400;28;20540;-57
2023/04/22 11:58:09;;;;;;;3.92;3.47;;;23.30;77.70;;;;;;5034725;28;20091;-57
2023/04/22 12:00:45;;;;;;;6.43;2.80;;;23.40;76.50;;;;;;5033328;28;20083;-59
2023/04/22 12:03:17;;;;;;;4.18;3.13;;;23.40;79.60;;;;;;5024256;28;20038;-56
2023/04/22 12:05:45;;;;;;;4.45;3.53;;;23.50;78.60;;;;;;5034541;28;20427;-59
2023/04/22 12:08:14;;;;;;;3.45;3.15;;;23.50;77.20;;;;;;5034179;28;20036;-59
2023/04/22 12:10:41;;;;;;;4.03;3.55;;;23.60;76.70;;;;;;5035072;28;20100;-58
2023/04/22 12:13:08;;;;;;;5.45;3.78;;;23.50;77.30;;;;;;5033841;28;20025;-60
2023/04/22 12:15:42;;;;;;;5.38;3.30;;;23.60;78.10;;;;;;5015685;28;20575;-57
2023/04/22 12:18:07;;;;;;;3.63;3.33;;;23.70;77.80;;;;;;5034863;28;20039;-58
2023/04/22 12:20:39;;;;;;;5.50;3.63;;;23.80;76.90;;;;;;5033651;28;20398;-58
2023/04/22 12:23:10;;;;;;;5.25;2.85;;;24.00;76.90;;;;;;5034429;28;20029;-60
2023/04/22 12:25:36;;;;;;;4.75;3.30;;;24.10;76.60;;;;;;5034002;28;20055;-59
2023/04/22 12:28:02;;;;;;;3.72;2.90;;;24.20;76.90;;;;;;5023741;28;20119;-60
2023/04/22 12:30:27;;;;;;;3.97;3.15;;;24.20;76.10;;;;;;5034809;28;20059;-58
2023/04/22 12:32:53;;;;;;;3.63;2.90;;;24.20;77.00;;;;;;5038454;28;20029;-55
2023/04/22 12:35:18;;;;;;;5.05;3.00;;;24.20;76.90;;;;;;5039607;28;20619;-57
2023/04/22 12:37:44;;;;;;;3.85;3.53;;;24.30;75.70;;;;;;5037134;28;20040;-57
2023/04/22 12:40:10;;;;;;;4.72;3.25;;;24.30;74.90;;;;;;5038341;28;20033;-56
2023/04/22 12:42:36;;;;;;;3.63;3.13;;;24.30;75.00;;;;;;5036330;28;20029;-58
2023/04/22 12:45:02;;;;;;;3.25;2.92;;;24.30;74.70;;;;;;5038718;28;20044;-57
2023/04/22 12:47:27;;;;;;;3.85;3.28;;;24.40;76.10;;;;;;5036849;28;20022;-60